Federal Churchill — V7NK3 — position and weather

sailwx.info

Track history (hours):
 
Tides and Currents Weather Stations Pressure Air Temp Water Temp Dewpoint Dewpoint Depression Visibility Wind Speed Wind Dir Waves Ship Positions

Federal Churchill

Last reported at 2018-Feb-04 00:07 UTC. Time now 2018-Feb-24 00:45 UTC.
Position N 09°11' W 079°52'.
Warning: this ship's position is 20 days out of date.

Length 200 m; draft 11.4 m.

Type: Cargo ship. MMSI: 538006469.

Date/timePositionNaut miles runAvg speedWind from/ knotsBaromVisibWave heightAir tempDewpointWater temp
2018-Feb-04 00:07N 09°11' W 079°52'111.4
2018-Feb-04 00:00N 09°11' W 079°53'4 8.9
2018-Feb-03 23:31N 09°15' W 079°55'1 1.9
2018-Feb-03 22:59N 09°16' W 079°55'0 0.6
2018-Feb-03 22:31N 09°17' W 079°55'0 0.4
2018-Feb-03 22:01N 09°17' W 079°55'0 0.6
2018-Feb-03 21:31N 09°17' W 079°55'2 3.2
2018-Feb-03 21:00N 09°19' W 079°55'4 7.6
2018-Feb-03 20:31N 09°22' W 079°56'0 0.4
2018-Feb-03 19:58N 09°22' W 079°56'0 0.0
2018-Feb-03 18:28N 09°22' W 079°56'0 0.0
2018-Feb-03 17:58N 09°22' W 079°56'0 0.0
2018-Feb-03 17:28N 09°22' W 079°56'0 0.0
2018-Feb-03 16:58N 09°22' W 079°56'0 0.0
2018-Feb-03 15:58N 09°22' W 079°56'0 0.1
2018-Feb-03 15:25N 09°22' W 079°56'0 0.1
2018-Feb-03 14:58N 09°22' W 079°56'0 0.3
2018-Feb-03 14:28N 09°22' W 079°56'0 0.0
2018-Feb-03 13:58N 09°22' W 079°56'0 0.0
2018-Feb-03 13:28N 09°22' W 079°56'0 0.2
2018-Feb-03 12:58N 09°22' W 079°56'0 1.1
2018-Feb-03 12:30N 09°23' W 079°56'3 5.0
2018-Feb-03 12:00N 09°25' W 079°55'3 5.2
2018-Feb-03 11:30N 09°28' W 079°55'2 4.7
2018-Feb-03 11:00N 09°30' W 079°54'3 6.1
2018-Feb-03 10:30N 09°33' W 079°53'  
2018-Jan-25 12:19N 29°60' W 090°26'  
Track history (hours):
 
Tides and Currents Weather Stations Pressure Air Temp Water Temp Dewpoint Dewpoint Depression Visibility Wind Speed Wind Dir Waves Ship Positions

Federal Churchill

Last reported at 2018-Feb-04 00:07 UTC. Time now 2018-Feb-24 00:45 UTC.
Position N 09°11' W 079°52'.
Warning: this ship's position is 20 days out of date.

Length 200 m; draft 11.4 m.

Type: Cargo ship. MMSI: 538006469.

Date/timePositionNaut miles runAvg speedWind from/ knotsBaromVisibWave heightAir tempDewpointWater temp
2018-Feb-04 00:07N 09°11' W 079°52'111.4
2018-Feb-04 00:00N 09°11' W 079°53'4 8.9
2018-Feb-03 23:31N 09°15' W 079°55'1 1.9
2018-Feb-03 22:59N 09°16' W 079°55'0 0.6
2018-Feb-03 22:31N 09°17' W 079°55'0 0.4
2018-Feb-03 22:01N 09°17' W 079°55'0 0.6
2018-Feb-03 21:31N 09°17' W 079°55'2 3.2
2018-Feb-03 21:00N 09°19' W 079°55'4 7.6
2018-Feb-03 20:31N 09°22' W 079°56'0 0.4
2018-Feb-03 19:58N 09°22' W 079°56'0 0.0
2018-Feb-03 18:28N 09°22' W 079°56'0 0.0
2018-Feb-03 17:58N 09°22' W 079°56'0 0.0
2018-Feb-03 17:28N 09°22' W 079°56'0 0.0
2018-Feb-03 16:58N 09°22' W 079°56'0 0.0
2018-Feb-03 15:58N 09°22' W 079°56'0 0.1
2018-Feb-03 15:25N 09°22' W 079°56'0 0.1
2018-Feb-03 14:58N 09°22' W 079°56'0 0.3
2018-Feb-03 14:28N 09°22' W 079°56'0 0.0
2018-Feb-03 13:58N 09°22' W 079°56'0 0.0
2018-Feb-03 13:28N 09°22' W 079°56'0 0.2
2018-Feb-03 12:58N 09°22' W 079°56'0 1.1
2018-Feb-03 12:30N 09°23' W 079°56'3 5.0
2018-Feb-03 12:00N 09°25' W 079°55'3 5.2
2018-Feb-03 11:30N 09°28' W 079°55'2 4.7
2018-Feb-03 11:00N 09°30' W 079°54'3 6.1
2018-Feb-03 10:30N 09°33' W 079°53'  
2018-Jan-25 12:19N 29°60' W 090°26'  

Dump ship's entire track history